Time;durP1;ratioP1;P1;durP2;ratioP2;P2;SDS_P1;SDS_P2;PMS_P1;PMS_P2;Temp;Humidity;BMP_temperature;BMP_pressure;BME280_temperature;BME280_humidity;BME280_pressure;Samples;Min_cycle;Max_cycle;Signal;HPM_P1;HPM_P2
2022/10/19 00:01:49;;;;;;;17.42;12.68;;;13.60;99.90;;;;;;5094418;28;20043;-52
2022/10/19 00:04:15;;;;;;;17.30;12.30;;;13.50;99.90;;;;;;5094428;28;20107;-50
2022/10/19 00:06:40;;;;;;;20.70;11.88;;;13.50;99.90;;;;;;5094281;28;20593;-51
2022/10/19 00:09:09;;;;;;;27.63;14.40;;;13.40;99.90;;;;;;5093991;28;20044;-50
2022/10/19 00:11:37;;;;;;;21.80;14.98;;;13.40;99.90;;;;;;5094116;28;20035;-50
2022/10/19 00:14:03;;;;;;;21.52;14.00;;;13.40;99.90;;;;;;5094282;28;20635;-51
2022/10/19 00:16:33;;;;;;;26.98;13.63;;;13.30;99.90;;;;;;5093790;28;20032;-51
2022/10/19 00:19:01;;;;;;;26.27;13.45;;;13.20;99.90;;;;;;5093423;28;20040;-49
2022/10/19 00:21:27;;;;;;;17.50;12.35;;;13.20;99.90;;;;;;5093135;28;20035;-51
2022/10/19 00:23:53;;;;;;;15.73;13.20;;;13.10;99.90;;;;;;5093761;28;20024;-50
2022/10/19 00:26:19;;;;;;;18.38;12.95;;;13.10;99.90;;;;;;5091910;28;20535;-50
2022/10/19 00:28:44;;;;;;;23.73;12.20;;;13.00;99.90;;;;;;5092855;28;20402;-50
2022/10/19 00:31:13;;;;;;;28.33;13.25;;;12.90;99.90;;;;;;5093554;28;20536;-50
2022/10/19 00:33:39;;;;;;;21.92;11.82;;;12.90;99.90;;;;;;5093913;28;20017;-51
2022/10/19 00:36:05;;;;;;;27.70;13.98;;;12.80;99.90;;;;;;5094119;28;20047;-50
2022/10/19 00:38:31;;;;;;;25.23;13.52;;;12.80;99.90;;;;;;5093682;28;20025;-51
2022/10/19 00:40:57;;;;;;;13.60;12.15;;;12.70;99.90;;;;;;5093777;28;20115;-51
2022/10/19 00:43:26;;;;;;;22.90;12.65;;;12.70;99.90;;;;;;5093342;28;20110;-50
2022/10/19 00:45:52;;;;;;;22.88;11.48;;;12.60;99.90;;;;;;5093682;28;20075;-51
2022/10/19 00:48:30;;;;;;;23.23;12.38;;;12.60;99.90;;;;;;5093450;28;20051;-51
2022/10/19 00:50:58;;;;;;;16.80;12.98;;;12.50;99.90;;;;;;5093502;28;20032;-50
2022/10/19 00:53:27;;;;;;;21.27;14.07;;;12.50;99.90;;;;;;5093233;28;20024;-50
2022/10/19 00:55:53;;;;;;;21.98;15.38;;;12.50;99.90;;;;;;5093601;28;20394;-50
2022/10/19 00:58:19;;;;;;;22.48;15.15;;;12.50;99.90;;;;;;5093074;28;20530;-51
2022/10/19 01:00:45;;;;;;;20.52;14.05;;;12.50;99.90;;;;;;5093464;28;20039;-52
2022/10/19 01:03:12;;;;;;;24.27;14.73;;;12.50;99.90;;;;;;5093300;28;20028;-51
2022/10/19 01:05:38;;;;;;;19.90;14.73;;;12.50;99.90;;;;;;5093268;28;20021;-50
2022/10/19 01:08:05;;;;;;;20.60;14.52;;;12.60;99.90;;;;;;5092868;28;20044;-50
2022/10/19 01:10:51;;;;;;;24.00;14.65;;;12.50;99.90;;;;;;5091706;28;20028;-50
2022/10/19 01:13:50;;;;;;;47.10;15.10;;;12.50;99.90;;;;;;5091607;28;20471;-51
2022/10/19 01:16:49;;;;;;;20.33;14.20;;;12.50;99.90;;;;;;5092854;28;20020;-50
2022/10/19 01:19:17;;;;;;;24.63;15.27;;;12.50;99.90;;;;;;5092871;28;20047;-51
2022/10/19 01:21:48;;;;;;;27.63;16.65;;;12.50;99.90;;;;;;5092793;28;20034;-52
2022/10/19 01:24:56;;;;;;;28.20;15.77;;;12.50;99.90;;;;;;5092781;28;20031;-50
2022/10/19 01:27:36;;;;;;;21.17;16.10;;;12.50;99.90;;;;;;5091376;28;20031;-49
2022/10/19 01:30:25;;;;;;;30.65;16.10;;;12.50;99.90;;;;;;5092627;28;20031;-50
2022/10/19 01:33:15;;;;;;;38.05;17.95;;;12.50;99.90;;;;;;5091374;28;20028;-51
2022/10/19 01:35:40;;;;;;;25.15;17.35;;;12.50;99.90;;;;;;5092550;28;20028;-50
2022/10/19 01:38:25;;;;;;;34.38;16.13;;;12.60;99.90;;;;;;5092406;28;20035;-51
2022/10/19 01:40:57;;;;;;;35.28;18.10;;;12.60;99.90;;;;;;5092724;28;20052;-51
2022/10/19 01:43:37;;;;;;;25.40;15.93;;;12.70;99.90;;;;;;5092219;28;20034;-52
2022/10/19 01:46:37;;;;;;;21.40;16.50;;;12.70;99.90;;;;;;5092350;28;20020;-51
2022/10/19 01:49:18;;;;;;;21.15;15.70;;;12.80;99.90;;;;;;5077003;28;20074;-51
2022/10/19 01:51:53;;;;;;;29.67;16.13;;;12.80;99.90;;;;;;5092298;28;20077;-50
2022/10/19 01:54:21;;;;;;;25.00;15.98;;;12.90;99.90;;;;;;5092254;28;20375;-52
2022/10/19 01:56:49;;;;;;;22.90;16.50;;;12.80;99.90;;;;;;5092178;28;20478;-50
2022/10/19 01:59:17;;;;;;;24.92;18.40;;;12.90;99.90;;;;;;5092154;28;20032;-49
2022/10/19 02:01:45;;;;;;;23.45;17.70;;;12.90;99.90;;;;;;5092154;28;20028;-50
2022/10/19 02:04:14;;;;;;;33.67;16.67;;;12.90;99.90;;;;;;5091945;28;20032;-50
2022/10/19 02:06:41;;;;;;;29.33;16.08;;;13.00;99.90;;;;;;5092000;28;20024;-52
2022/10/19 02:09:06;;;;;;;27.50;18.23;;;13.10;99.90;;;;;;5091852;28;20131;-51
2022/10/19 02:11:33;;;;;;;34.30;19.23;;;13.10;99.90;;;;;;5091876;28;20115;-50
2022/10/19 02:14:05;;;;;;;30.85;18.08;;;13.10;99.90;;;;;;5092221;28;20526;-51
2022/10/19 02:16:40;;;;;;;30.55;17.23;;;13.20;99.90;;;;;;5091949;28;20465;-50
2022/10/19 02:19:07;;;;;;;27.73;16.58;;;13.20;99.90;;;;;;5091839;28;20375;-51
2022/10/19 02:21:33;;;;;;;29.23;18.35;;;13.30;99.90;;;;;;5091772;28;20089;-50
2022/10/19 02:23:59;;;;;;;30.88;18.23;;;13.30;99.90;;;;;;5091983;28;20035;-49
2022/10/19 02:26:25;;;;;;;28.80;17.33;;;13.30;99.90;;;;;;5091724;28;20028;-50
2022/10/19 02:28:54;;;;;;;19.20;16.30;;;13.30;99.90;;;;;;5091981;28;20028;-50
2022/10/19 02:31:20;;;;;;;38.67;17.25;;;13.30;99.90;;;;;;5091356;28;20106;-53
2022/10/19 02:33:46;;;;;;;32.53;19.02;;;13.30;99.90;;;;;;5091742;28;20027;-50
2022/10/19 02:36:12;;;;;;;30.25;17.23;;;13.40;99.90;;;;;;5091662;28;20455;-51
2022/10/19 02:38:39;;;;;;;44.25;18.60;;;13.40;99.90;;;;;;5090430;28;20028;-50
2022/10/19 02:41:16;;;;;;;18.05;16.05;;;13.40;99.90;;;;;;5091676;28;20367;-51
2022/10/19 02:43:47;;;;;;;34.47;17.13;;;13.40;99.90;;;;;;5091663;28;20024;-53
2022/10/19 02:46:24;;;;;;;29.50;17.17;;;13.40;99.90;;;;;;5091562;28;20028;-53
2022/10/19 02:48:50;;;;;;;27.98;17.08;;;13.40;99.90;;;;;;5091534;28;20035;-50
2022/10/19 02:51:29;;;;;;;27.88;18.88;;;13.40;99.90;;;;;;5094805;28;20100;-52
2022/10/19 02:53:55;;;;;;;27.08;17.73;;;13.40;99.90;;;;;;5095779;28;20020;-50
2022/10/19 02:56:21;;;;;;;30.65;19.05;;;13.40;99.90;;;;;;5095664;28;20066;-51
2022/10/19 02:58:47;;;;;;;33.80;19.10;;;13.40;99.90;;;;;;5095609;28;20020;-50
2022/10/19 03:01:13;;;;;;;29.15;18.38;;;13.50;99.90;;;;;;5095639;28;20024;-50
2022/10/19 03:03:39;;;;;;;27.50;18.85;;;13.50;99.90;;;;;;5095475;28;20024;-51
2022/10/19 03:06:05;;;;;;;27.27;18.08;;;13.60;99.90;;;;;;5095528;28;20046;-51
2022/10/19 03:08:30;;;;;;;29.73;18.30;;;13.60;99.90;;;;;;5095288;28;20085;-51
2022/10/19 03:10:59;;;;;;;36.70;18.65;;;13.60;99.90;;;;;;5095427;28;20032;-51
2022/10/19 03:13:25;;;;;;;24.05;17.75;;;13.70;99.90;;;;;;5095313;28;20016;-52
2022/10/19 03:15:50;;;;;;;26.90;16.90;;;13.70;99.90;;;;;;5093933;28;20020;-51
2022/10/19 03:18:16;;;;;;;31.00;17.85;;;13.70;99.90;;;;;;5095285;28;20482;-51
2022/10/19 03:20:42;;;;;;;22.63;16.88;;;13.70;99.90;;;;;;5095189;28;20360;-50
2022/10/19 03:23:07;;;;;;;22.33;17.80;;;13.70;99.90;;;;;;5095288;28;20039;-50
2022/10/19 03:25:33;;;;;;;23.95;17.48;;;13.80;99.90;;;;;;5095119;28;20471;-51
2022/10/19 03:27:58;;;;;;;24.13;16.42;;;13.70;99.90;;;;;;5095460;28;20526;-50
2022/10/19 03:30:24;;;;;;;34.35;18.17;;;13.70;99.90;;;;;;5094898;28;20107;-51
2022/10/19 03:32:50;;;;;;;23.08;17.88;;;13.80;99.90;;;;;;5094922;28;20020;-52
2022/10/19 03:35:16;;;;;;;29.02;18.45;;;13.80;99.90;;;;;;5094902;28;20020;-50
2022/10/19 03:37:41;;;;;;;32.42;17.98;;;13.80;99.90;;;;;;5094873;28;20405;-50
2022/10/19 03:40:08;;;;;;;21.98;16.70;;;13.70;99.90;;;;;;5094393;28;20024;-50
2022/10/19 03:42:33;;;;;;;31.10;18.50;;;13.70;99.90;;;;;;5094348;28;20077;-51
2022/10/19 03:44:59;;;;;;;36.92;19.38;;;13.80;99.90;;;;;;5094241;28;20024;-50
2022/10/19 03:47:25;;;;;;;30.95;18.50;;;13.80;99.90;;;;;;5093207;28;20410;-53
2022/10/19 03:49:50;;;;;;;27.80;17.90;;;13.80;99.90;;;;;;5093509;28;20024;-50
2022/10/19 03:52:19;;;;;;;39.78;19.13;;;13.80;99.90;;;;;;5093092;28;20364;-49
2022/10/19 03:54:48;;;;;;;30.80;18.17;;;13.90;99.90;;;;;;5092048;28;20077;-53
2022/10/19 03:57:13;;;;;;;33.85;20.67;;;13.90;99.90;;;;;;5093217;28;20020;-52
2022/10/19 03:59:39;;;;;;;28.13;18.42;;;13.80;99.90;;;;;;5093017;28;20020;-50
2022/10/19 04:02:05;;;;;;;29.17;17.70;;;13.80;99.90;;;;;;5093218;28;20517;-48
2022/10/19 04:04:30;;;;;;;35.70;17.90;;;13.80;99.90;;;;;;5091848;28;20028;-49
2022/10/19 04:06:56;;;;;;;28.63;17.13;;;13.80;99.90;;;;;;5091827;28;20032;-51
2022/10/19 04:09:22;;;;;;;35.45;18.20;;;13.80;99.90;;;;;;5091438;28;20502;-49
2022/10/19 04:11:49;;;;;;;24.67;18.08;;;13.80;99.90;;;;;;5091904;28;20043;-49
2022/10/19 04:14:16;;;;;;;36.15;17.40;;;13.80;99.90;;;;;;5092861;28;20493;-49
2022/10/19 04:16:41;;;;;;;23.38;16.90;;;13.80;99.90;;;;;;5092928;28;20043;-53
2022/10/19 04:19:08;;;;;;;28.27;16.83;;;13.80;99.90;;;;;;5092563;28;20547;-49
2022/10/19 04:21:36;;;;;;;27.95;17.08;;;13.90;99.90;;;;;;5092644;28;20031;-50
2022/10/19 04:24:13;;;;;;;30.33;17.17;;;13.80;99.90;;;;;;5092876;28;20081;-50
2022/10/19 04:26:41;;;;;;;42.85;18.08;;;13.80;99.90;;;;;;5092536;28;20024;-50
2022/10/19 04:29:07;;;;;;;34.55;17.35;;;13.80;99.90;;;;;;5092445;28;20024;-50
2022/10/19 04:31:33;;;;;;;25.55;18.80;;;13.80;99.90;;;;;;5092578;28;20469;-51
2022/10/19 04:33:59;;;;;;;23.98;17.33;;;13.80;99.90;;;;;;5092846;28;20106;-51
2022/10/19 04:36:24;;;;;;;20.67;15.32;;;13.80;99.90;;;;;;5092274;28;20030;-49
2022/10/19 04:38:51;;;;;;;21.77;14.13;;;13.90;99.90;;;;;;5092386;28;20108;-50
2022/10/19 04:41:18;;;;;;;27.27;17.60;;;13.90;99.90;;;;;;5092219;28;20420;-50
2022/10/19 04:43:45;;;;;;;33.85;17.38;;;13.90;99.90;;;;;;5092230;28;20365;-49
2022/10/19 04:46:13;;;;;;;30.67;20.10;;;13.90;99.90;;;;;;5092257;28;20024;-52
2022/10/19 04:48:40;;;;;;;51.75;22.40;;;14.00;99.90;;;;;;5092101;28;20031;-50
2022/10/19 04:51:05;;;;;;;34.55;21.90;;;13.90;99.90;;;;;;5091994;28;20048;-49
2022/10/19 04:53:32;;;;;;;38.05;23.85;;;14.00;99.90;;;;;;5091948;28;20043;-49
2022/10/19 04:55:58;;;;;;;39.55;24.80;;;13.90;99.90;;;;;;5092310;28;20056;-50
2022/10/19 04:58:24;;;;;;;35.55;25.48;;;13.90;99.90;;;;;;5091682;28;20055;-49
2022/10/19 05:00:50;;;;;;;47.60;24.55;;;13.90;99.90;;;;;;5092108;28;20028;-50
2022/10/19 05:03:16;;;;;;;33.90;22.63;;;14.00;99.90;;;;;;5091501;28;20024;-50
2022/10/19 05:05:41;;;;;;;33.90;24.02;;;13.90;99.90;;;;;;5091977;28;20038;-50
2022/10/19 05:08:08;;;;;;;43.92;24.02;;;13.90;99.90;;;;;;5091616;28;20044;-50
2022/10/19 05:10:35;;;;;;;37.88;24.88;;;13.80;99.90;;;;;;5091654;28;20032;-50
2022/10/19 05:13:01;;;;;;;46.45;26.30;;;13.80;99.90;;;;;;5091278;28;20111;-50
2022/10/19 05:15:28;;;;;;;39.42;23.98;;;13.80;99.90;;;;;;5091627;28;20488;-51
2022/10/19 05:17:53;;;;;;;38.03;26.10;;;13.70;99.90;;;;;;5091589;28;20055;-51
2022/10/19 05:20:19;;;;;;;40.75;26.23;;;13.70;99.90;;;;;;5091405;28;20067;-49
2022/10/19 05:22:45;;;;;;;37.53;26.20;;;13.60;99.90;;;;;;5091598;28;20028;-51
2022/10/19 05:25:10;;;;;;;37.00;25.52;;;13.60;99.90;;;;;;5091300;28;20028;-52
2022/10/19 05:27:36;;;;;;;40.53;25.15;;;13.60;99.90;;;;;;5091298;28;20383;-52
2022/10/19 05:30:02;;;;;;;38.72;24.17;;;13.50;99.90;;;;;;5091222;28;20506;-50
2022/10/19 05:32:28;;;;;;;35.78;23.92;;;13.40;99.90;;;;;;5091066;28;20427;-51
2022/10/19 05:34:54;;;;;;;38.90;22.73;;;13.40;99.90;;;;;;5091431;28;20067;-49
2022/10/19 05:37:20;;;;;;;41.63;20.85;;;13.30;99.90;;;;;;5090943;28;20031;-49
2022/10/19 05:39:46;;;;;;;29.20;21.67;;;13.30;99.90;;;;;;5091196;28;20047;-51
2022/10/19 05:42:11;;;;;;;35.50;24.00;;;13.30;99.90;;;;;;5091081;28;20113;-51
2022/10/19 05:44:37;;;;;;;40.80;24.38;;;13.20;99.90;;;;;;5091118;28;20024;-49
2022/10/19 05:47:03;;;;;;;33.08;21.50;;;13.20;99.90;;;;;;5090940;28;20387;-51
2022/10/19 05:49:29;;;;;;;40.28;24.90;;;13.30;99.90;;;;;;5090995;28;20024;-50
2022/10/19 05:51:55;;;;;;;33.58;21.73;;;13.30;99.90;;;;;;5090900;28;20025;-50
2022/10/19 05:54:20;;;;;;;36.13;21.70;;;13.30;99.90;;;;;;5090689;28;20028;-49
2022/10/19 05:56:46;;;;;;;49.65;23.40;;;13.30;99.90;;;;;;5090993;28;20489;-49
2022/10/19 05:59:18;;;;;;;32.10;21.67;;;13.40;99.90;;;;;;5090983;28;20500;-50
2022/10/19 06:01:45;;;;;;;37.95;21.65;;;13.50;99.90;;;;;;5091642;28;20023;-50
2022/10/19 06:04:12;;;;;;;33.00;21.25;;;13.50;99.90;;;;;;5091836;28;20059;-50
2022/10/19 06:06:39;;;;;;;44.92;22.58;;;13.50;99.90;;;;;;5091677;28;20038;-50
2022/10/19 06:09:04;;;;;;;34.85;22.25;;;13.60;99.90;;;;;;5090991;28;20609;-51
2022/10/19 06:11:33;;;;;;;35.65;23.40;;;13.70;99.90;;;;;;5091158;28;20036;-51
2022/10/19 06:14:01;;;;;;;36.88;22.33;;;13.80;99.90;;;;;;5092185;28;20459;-50
2022/10/19 06:16:28;;;;;;;33.20;22.95;;;13.90;99.90;;;;;;5091818;28;20439;-50
2022/10/19 06:18:55;;;;;;;36.17;21.98;;;13.90;99.90;;;;;;5092205;28;20027;-53
2022/10/19 06:21:24;;;;;;;32.28;21.08;;;14.00;99.90;;;;;;5091576;28;20080;-50
2022/10/19 06:23:54;;;;;;;25.60;19.90;;;14.10;99.90;;;;;;5091049;28;20459;-52
2022/10/19 06:26:21;;;;;;;32.72;19.55;;;14.20;99.90;;;;;;5090386;28;20050;-50
2022/10/19 06:28:48;;;;;;;27.77;19.25;;;14.30;99.90;;;;;;5091340;28;20069;-51
2022/10/19 06:31:13;;;;;;;22.02;17.05;;;14.30;99.90;;;;;;5090876;28;20028;-50
2022/10/19 06:33:41;;;;;;;23.35;16.23;;;14.50;99.90;;;;;;5091816;28;20527;-50
2022/10/19 06:36:13;;;;;;;27.90;17.58;;;14.50;99.90;;;;;;5091664;28;20016;-50
2022/10/19 06:38:39;;;;;;;25.48;16.10;;;14.60;99.90;;;;;;5091672;28;20047;-51
2022/10/19 06:41:06;;;;;;;22.65;15.70;;;14.70;99.90;;;;;;5091523;28;20344;-50
2022/10/19 06:43:32;;;;;;;23.25;17.60;;;14.80;99.90;;;;;;5090255;28;20490;-55
2022/10/19 06:45:58;;;;;;;71.10;49.90;;;14.90;99.90;;;;;;5090401;28;20039;-51
2022/10/19 06:48:24;;;;;;;30.35;19.20;;;14.90;99.90;;;;;;5091334;28;20024;-50
2022/10/19 06:50:57;;;;;;;28.23;17.70;;;14.90;99.90;;;;;;5091599;28;20020;-50
2022/10/19 06:53:23;;;;;;;26.10;18.60;;;14.90;99.90;;;;;;5090206;28;20027;-52
2022/10/19 06:55:48;;;;;;;87.95;60.00;;;15.00;99.90;;;;;;5091520;28;20017;-50
2022/10/19 06:58:14;;;;;;;67.50;44.00;;;15.00;99.90;;;;;;5091296;28;20462;-51
2022/10/19 07:00:40;;;;;;;36.05;26.38;;;15.00;99.90;;;;;;5090079;28;20464;-51
2022/10/19 07:03:06;;;;;;;27.67;17.98;;;15.00;99.90;;;;;;5089922;28;20034;-51
2022/10/19 07:05:31;;;;;;;23.38;16.88;;;15.00;99.90;;;;;;5091215;28;20024;-50
2022/10/19 07:07:57;;;;;;;23.38;16.27;;;15.10;99.90;;;;;;5090043;28;20135;-52
2022/10/19 07:10:23;;;;;;;20.27;15.30;;;15.10;99.90;;;;;;5091094;28;20040;-50
2022/10/19 07:12:48;;;;;;;25.10;16.77;;;15.10;99.90;;;;;;5090224;28;20104;-49
2022/10/19 07:15:14;;;;;;;25.92;17.85;;;15.10;99.90;;;;;;5091281;28;20016;-50
2022/10/19 07:17:40;;;;;;;24.55;15.07;;;15.00;99.90;;;;;;5091412;28;20048;-49
2022/10/19 07:20:06;;;;;;;27.02;14.52;;;15.10;99.90;;;;;;5091199;28;20104;-52
2022/10/19 07:22:31;;;;;;;26.83;14.90;;;15.10;99.90;;;;;;5091286;28;20146;-51
2022/10/19 07:24:57;;;;;;;23.17;14.68;;;15.20;99.90;;;;;;5091309;28;20024;-50
2022/10/19 07:27:23;;;;;;;21.70;15.32;;;15.10;99.90;;;;;;5091084;28;20051;-50
2022/10/19 07:29:49;;;;;;;25.33;15.63;;;15.10;99.90;;;;;;5091182;28;20012;-51
2022/10/19 07:32:14;;;;;;;24.23;15.93;;;15.20;99.90;;;;;;5090964;28;20464;-51
2022/10/19 07:34:40;;;;;;;25.23;16.15;;;15.20;99.90;;;;;;5091124;28;20333;-51
2022/10/19 07:37:06;;;;;;;24.05;17.25;;;15.10;99.90;;;;;;5094019;28;20111;-51
2022/10/19 07:39:31;;;;;;;22.25;16.90;;;15.10;99.90;;;;;;5093383;28;20028;-54
2022/10/19 07:41:57;;;;;;;29.73;17.58;;;15.10;99.90;;;;;;5112945;28;20489;-53
2022/10/19 07:44:23;;;;;;;42.47;19.23;;;15.20;99.90;;;;;;5114783;28;20110;-51
2022/10/19 07:46:49;;;;;;;33.10;19.25;;;15.10;99.90;;;;;;5115178;28;20031;-55
2022/10/19 07:49:15;;;;;;;28.58;20.55;;;15.00;99.90;;;;;;5115202;28;20107;-49
2022/10/19 07:51:41;;;;;;;28.90;20.73;;;15.00;99.90;;;;;;5114792;28;20030;-50
2022/10/19 07:54:07;;;;;;;35.13;20.95;;;15.00;99.90;;;;;;5115022;27;20350;-54
2022/10/19 07:56:33;;;;;;;30.52;19.65;;;15.10;99.90;;;;;;5114893;28;20084;-52
2022/10/19 07:59:00;;;;;;;44.42;25.48;;;15.10;99.90;;;;;;5115121;28;20095;-54
2022/10/19 08:01:28;;;;;;;32.78;22.20;;;15.20;99.90;;;;;;5114434;28;20027;-50
2022/10/19 08:03:56;;;;;;;34.20;20.58;;;15.20;99.90;;;;;;5114939;28;20087;-52
2022/10/19 08:06:23;;;;;;;24.98;17.67;;;15.30;99.90;;;;;;5114592;28;20020;-51
2022/10/19 08:08:49;;;;;;;36.08;20.40;;;15.30;99.90;;;;;;5114524;28;20035;-52
2022/10/19 08:11:27;;;;;;;30.73;19.88;;;15.30;99.90;;;;;;5114606;28;20036;-52
2022/10/19 08:13:53;;;;;;;31.55;19.38;;;15.40;99.90;;;;;;5114808;28;20557;-64
2022/10/19 08:16:31;;;;;;;31.13;18.35;;;15.40;99.90;;;;;;5114353;28;20055;-49
2022/10/19 08:19:03;;;;;;;24.63;17.45;;;15.40;99.90;;;;;;5114520;28;20484;-53
2022/10/19 08:21:30;;;;;;;26.40;17.98;;;15.40;99.90;;;;;;5114383;27;20074;-50
2022/10/19 08:23:56;;;;;;;27.20;17.08;;;15.50;99.90;;;;;;5114602;28;20037;-49
2022/10/19 08:26:22;;;;;;;23.67;16.38;;;15.40;99.90;;;;;;5114109;28;20036;-52
2022/10/19 08:28:48;;;;;;;29.08;16.60;;;15.50;99.90;;;;;;5114604;28;20020;-51
2022/10/19 08:31:17;;;;;;;20.63;14.13;;;15.50;99.90;;;;;;5114098;28;20487;-50
2022/10/19 08:33:43;;;;;;;21.95;15.02;;;15.50;99.90;;;;;;5114142;28;20055;-51
2022/10/19 08:36:11;;;;;;;17.42;14.38;;;15.60;99.90;;;;;;5114226;28;20027;-50
2022/10/19 08:38:37;;;;;;;15.95;13.32;;;15.70;99.90;;;;;;5114297;28;20020;-51
2022/10/19 08:41:08;;;;;;;17.88;12.15;;;15.80;99.90;;;;;;5113946;28;20027;-50
2022/10/19 08:43:39;;;;;;;14.98;11.75;;;16.00;99.90;;;;;;5114311;28;20367;-50
2022/10/19 08:46:23;;;;;;;18.75;11.77;;;16.20;99.90;;;;;;5113820;28;20039;-52
2022/10/19 08:48:48;;;;;;;19.40;13.30;;;16.30;99.90;;;;;;5113296;28;20076;-49
2022/10/19 08:51:14;;;;;;;16.10;11.68;;;16.60;99.90;;;;;;5113532;28;20037;-50
2022/10/19 08:53:56;;;;;;;13.57;11.13;;;16.70;99.90;;;;;;5114175;28;20073;-50
2022/10/19 08:56:43;;;;;;;13.80;11.32;;;16.50;99.90;;;;;;5110199;28;20080;-51
2022/10/19 08:59:21;;;;;;;17.30;12.50;;;16.90;99.90;;;;;;5093255;28;20043;-52
2022/10/19 09:02:14;;;;;;;17.05;10.85;;;16.80;99.90;;;;;;5093453;28;20511;-51
2022/10/19 09:04:46;;;;;;;21.73;13.73;;;16.80;99.90;;;;;;5093466;28;20024;-51
2022/10/19 09:07:26;;;;;;;17.92;12.80;;;16.90;99.90;;;;;;5092741;28;20682;-50
2022/10/19 09:10:19;;;;;;;19.70;12.77;;;17.40;99.90;;;;;;5093034;28;20118;-51
2022/10/19 09:12:50;;;;;;;25.73;13.07;;;17.40;99.90;;;;;;5088225;28;20127;-53
2022/10/19 09:15:25;;;;;;;15.95;12.98;;;17.30;99.90;;;;;;5092858;28;20122;-52
2022/10/19 09:17:50;;;;;;;12.98;11.20;;;17.70;99.90;;;;;;5092992;28;20463;-52
2022/10/19 09:20:30;;;;;;;16.00;12.32;;;17.80;99.90;;;;;;5092901;28;20023;-50
2022/10/19 09:23:22;;;;;;;17.38;11.65;;;17.80;99.90;;;;;;5092682;28;20457;-50
2022/10/19 09:25:50;;;;;;;16.63;12.95;;;18.10;99.90;;;;;;5090565;28;20063;-50
2022/10/19 09:28:34;;;;;;;14.02;11.05;;;18.20;99.90;;;;;;5092727;28;20028;-53
2022/10/19 09:31:01;;;;;;;16.27;11.98;;;18.30;99.90;;;;;;5092600;28;20028;-53
2022/10/19 09:33:33;;;;;;;17.75;12.52;;;18.40;99.90;;;;;;5092477;28;20491;-52
2022/10/19 09:36:01;;;;;;;17.07;11.50;;;18.30;99.90;;;;;;5092775;28;20028;-53
2022/10/19 09:38:28;;;;;;;21.48;11.45;;;18.40;99.90;;;;;;5090257;28;20020;-52
2022/10/19 09:40:57;;;;;;;16.40;11.68;;;18.40;99.90;;;;;;5112724;28;20016;-51
2022/10/19 09:43:23;;;;;;;17.60;12.20;;;18.70;99.90;;;;;;5112422;28;20023;-53
2022/10/19 09:46:12;;;;;;;15.60;11.93;;;18.90;99.90;;;;;;5112718;28;20032;-55
2022/10/19 09:48:50;;;;;;;20.48;11.30;;;19.10;99.90;;;;;;5112110;28;20053;-55
2022/10/19 09:51:17;;;;;;;17.08;11.63;;;19.10;99.90;;;;;;5112538;28;20023;-53
2022/10/19 09:53:54;;;;;;;22.08;12.02;;;19.10;99.90;;;;;;5112588;28;20027;-51
2022/10/19 09:56:26;;;;;;;15.43;12.00;;;18.80;99.90;;;;;;5112689;28;20027;-52
2022/10/19 09:58:57;;;;;;;18.92;12.35;;;18.50;99.90;;;;;;5112373;27;20035;-53
2022/10/19 10:01:36;;;;;;;17.98;12.98;;;18.20;99.90;;;;;;5112611;28;20035;-51
2022/10/19 10:04:29;;;;;;;15.32;12.82;;;18.00;99.90;;;;;;5112306;28;20483;-51
2022/10/19 10:06:56;;;;;;;14.98;12.82;;;17.80;99.90;;;;;;5108284;28;20028;-54
2022/10/19 10:09:26;;;;;;;22.13;14.05;;;17.50;99.90;;;;;;5112272;28;20028;-52
2022/10/19 10:11:55;;;;;;;14.95;12.18;;;17.40;99.90;;;;;;5112200;28;20054;-51
2022/10/19 10:14:34;;;;;;;16.67;12.60;;;17.30;99.90;;;;;;5112199;28;20043;-50
2022/10/19 10:17:15;;;;;;;25.20;14.68;;;17.20;99.90;;;;;;5112455;28;20386;-50
2022/10/19 10:20:17;;;;;;;20.95;13.77;;;17.20;99.90;;;;;;5112187;28;20065;-51
2022/10/19 10:22:51;;;;;;;14.55;12.63;;;17.20;99.90;;;;;;5112232;28;20024;-50
2022/10/19 10:25:17;;;;;;;15.45;12.48;;;17.20;99.90;;;;;;5111985;28;20490;-50
2022/10/19 10:28:15;;;;;;;18.33;12.63;;;17.30;99.90;;;;;;5112374;28;20080;-51
2022/10/19 10:30:43;;;;;;;18.98;12.30;;;17.40;99.90;;;;;;5098340;28;20039;-49
2022/10/19 10:33:14;;;;;;;14.38;10.95;;;17.70;99.90;;;;;;5110903;28;20034;-53
2022/10/19 10:35:47;;;;;;;19.63;10.65;;;17.90;99.90;;;;;;5059869;28;20048;-52
2022/10/19 10:38:17;;;;;;;24.63;13.80;;;18.20;99.90;;;;;;5060989;28;20028;-50
2022/10/19 10:40:55;;;;;;;16.73;10.85;;;18.30;99.90;;;;;;5060436;28;20107;-52
2022/10/19 10:43:31;;;;;;;13.75;10.35;;;18.50;99.90;;;;;;5075566;28;20098;-50
2022/10/19 10:46:15;;;;;;;12.18;10.85;;;18.60;99.90;;;;;;5060194;28;20064;-52
2022/10/19 10:48:51;;;;;;;14.75;10.13;;;18.60;99.90;;;;;;5060526;28;20051;-51
2022/10/19 10:51:42;;;;;;;23.08;11.27;;;18.80;99.90;;;;;;5060371;28;20050;-50
2022/10/19 10:54:21;;;;;;;15.00;11.05;;;18.50;99.90;;;;;;5050396;28;20032;-50
2022/10/19 10:57:10;;;;;;;14.18;11.63;;;18.60;99.90;;;;;;5061245;28;20065;-51
2022/10/19 10:59:48;;;;;;;15.95;11.95;;;18.70;99.90;;;;;;5059032;28;20482;-51
2022/10/19 11:02:29;;;;;;;16.60;12.38;;;18.70;99.90;;;;;;5058675;28;20044;-54
2022/10/19 11:05:11;;;;;;;12.23;10.82;;;18.90;99.90;;;;;;5059101;28;20029;-51
2022/10/19 11:07:46;;;;;;;20.83;11.98;;;19.10;99.90;;;;;;5075381;28;20744;-50
2022/10/19 11:10:34;;;;;;;25.55;12.43;;;19.00;99.90;;;;;;5059690;28;20418;-54
2022/10/19 11:13:17;;;;;;;29.52;14.75;;;18.60;99.90;;;;;;5064619;28;20021;-50
2022/10/19 11:16:01;;;;;;;22.52;13.90;;;18.50;99.90;;;;;;5064403;28;20024;-50
2022/10/19 11:18:34;;;;;;;24.65;13.68;;;18.60;99.90;;;;;;5064317;28;20035;-51
2022/10/19 11:21:00;;;;;;;;;;;18.80;99.90;;;;;;5079660;28;20033;-54
2022/10/19 11:23:41;;;;;;;14.82;12.20;;;19.60;99.90;;;;;;5064249;28;19908;-50
2022/10/19 11:26:16;;;;;;;17.60;11.50;;;20.20;99.90;;;;;;5064281;28;20377;-52
2022/10/19 11:28:55;;;;;;;18.50;10.25;;;20.20;99.90;;;;;;5064121;28;20652;-50
2022/10/19 11:31:35;;;;;;;21.17;12.48;;;20.60;99.90;;;;;;5063740;28;20376;-50
2022/10/19 11:34:17;;;;;;;18.85;11.45;;;20.70;99.90;;;;;;5064232;28;20345;-51
2022/10/19 11:36:54;;;;;;;22.00;11.52;;;20.60;99.90;;;;;;5064247;28;20063;-52
2022/10/19 11:39:53;;;;;;;19.42;11.40;;;20.10;99.90;;;;;;5079198;28;20032;-50
2022/10/19 11:42:46;;;;;;;16.80;11.95;;;19.90;99.90;;;;;;5063522;28;20028;-51
2022/10/19 11:45:23;;;;;;;20.00;12.07;;;19.40;99.90;;;;;;5063290;28;20065;-51
2022/10/19 11:48:19;;;;;;;20.92;12.98;;;19.00;99.90;;;;;;5063864;28;20025;-50
2022/10/19 11:51:00;;;;;;;22.40;12.05;;;18.80;99.90;;;;;;5063235;28;20116;-52
2022/10/19 11:53:46;;;;;;;16.50;12.80;;;18.80;99.90;;;;;;5063841;28;20029;-50
2022/10/19 11:56:18;;;;;;;15.68;11.77;;;18.70;99.90;;;;;;5063954;28;20103;-51
2022/10/19 11:59:04;;;;;;;20.45;12.05;;;18.70;99.90;;;;;;5063466;28;20911;-50
2022/10/19 12:01:46;;;;;;;23.17;10.82;;;18.70;99.90;;;;;;5063550;28;20028;-50
2022/10/19 12:04:32;;;;;;;14.95;12.40;;;18.90;99.90;;;;;;5063480;28;20574;-50
2022/10/19 12:07:03;;;;;;;17.67;11.38;;;18.80;99.90;;;;;;5078931;28;20036;-53
2022/10/19 12:09:47;;;;;;;17.55;11.82;;;18.80;99.90;;;;;;5063889;28;21750;-50
2022/10/19 12:12:30;;;;;;;19.30;11.73;;;18.70;99.90;;;;;;5063308;28;20056;-51
2022/10/19 12:15:25;;;;;;;15.52;12.05;;;18.80;99.90;;;;;;5063440;28;20380;-51
2022/10/19 12:17:53;;;;;;;14.45;11.65;;;18.90;99.90;;;;;;5027379;28;20132;-51
2022/10/19 12:20:23;;;;;;;15.10;11.60;;;19.00;99.90;;;;;;5063432;28;20570;-52
2022/10/19 12:22:49;;;;;;;22.40;11.07;;;19.10;99.90;;;;;;5061941;28;20056;-52
2022/10/19 12:25:18;;;;;;;27.08;11.20;;;19.10;99.90;;;;;;5066300;28;20098;-51
2022/10/19 12:27:46;;;;;;;13.15;10.30;;;18.90;99.90;;;;;;5062480;28;20028;-50
2022/10/19 12:30:13;;;;;;;28.83;10.23;;;18.80;99.90;;;;;;5062513;28;20383;-50
2022/10/19 12:33:11;;;;;;;15.60;10.75;;;18.60;99.90;;;;;;5062082;28;20029;-52
2022/10/19 12:36:04;;;;;;;17.85;10.63;;;18.60;99.90;;;;;;5062101;28;20414;-55
2022/10/19 12:38:35;;;;;;;13.93;11.50;;;18.60;99.90;;;;;;5063225;28;20031;-52
2022/10/19 12:41:22;;;;;;;15.77;11.57;;;18.70;99.90;;;;;;5062829;28;20024;-52
2022/10/19 12:44:02;;;;;;;12.80;9.00;;;19.20;99.90;;;;;;5062556;28;20028;-52
2022/10/19 12:46:37;;;;;;;23.35;8.32;;;21.30;99.90;;;;;;5062765;28;20033;-52
2022/10/19 12:49:27;;;;;;;9.43;7.35;;;22.80;99.60;;;;;;5062569;28;20021;-52